createdAt,value
2023-04-05T00:00:44.142Z,0.77
2023-04-05T00:03:11.645Z,0.80
2023-04-05T00:05:39.268Z,0.68
2023-04-05T00:08:13.188Z,0.80
2023-04-05T00:10:41.063Z,0.40
2023-04-05T00:13:08.716Z,0.40
2023-04-05T00:15:36.324Z,0.60
2023-04-05T00:18:04.081Z,0.50
2023-04-05T00:20:31.896Z,0.80
2023-04-05T00:22:59.530Z,0.80
2023-04-05T00:25:26.638Z,0.60
2023-04-05T00:27:53.740Z,0.60
2023-04-05T00:30:21.048Z,0.80
2023-04-05T00:32:49.925Z,0.93
2023-04-05T00:35:17.966Z,0.80
2023-04-05T00:37:45.429Z,1.08
2023-04-05T00:40:12.892Z,0.70
2023-04-05T00:42:43.596Z,0.75
2023-04-05T00:45:11.362Z,0.75
2023-04-05T00:47:39.130Z,1.00
2023-04-05T00:50:07.369Z,0.85
2023-04-05T00:52:34.936Z,1.23
2023-04-05T00:55:02.178Z,0.65
2023-04-05T00:57:31.922Z,1.80
2023-04-05T01:00:00.103Z,1.98
2023-04-05T01:02:36.761Z,1.23
2023-04-05T01:05:08.174Z,1.10
2023-04-05T01:07:41.939Z,0.95
2023-04-05T01:10:10.488Z,0.80
2023-04-05T01:12:38.177Z,0.80
2023-04-05T01:15:08.798Z,1.38
2023-04-05T01:17:41.152Z,1.20
2023-04-05T01:20:12.792Z,0.80
2023-04-05T01:23:04.723Z,0.90
2023-04-05T01:26:03.439Z,0.93
2023-04-05T01:28:50.638Z,1.25
2023-04-05T01:31:32.978Z,0.85
2023-04-05T01:34:23.273Z,0.80
2023-04-05T01:37:02.025Z,0.85
2023-04-05T01:39:29.568Z,1.17
2023-04-05T01:42:01.000Z,0.93
2023-04-05T01:44:28.818Z,0.88
2023-04-05T01:46:56.409Z,1.25
2023-04-05T01:49:24.740Z,1.15
2023-04-05T01:51:52.199Z,0.90
2023-04-05T01:54:19.481Z,1.10
2023-04-05T01:56:46.642Z,1.90
2023-04-05T01:59:14.123Z,1.42
2023-04-05T02:01:41.127Z,2.17
2023-04-05T02:04:12.938Z,0.95
2023-04-05T02:06:42.416Z,1.20
2023-04-05T02:09:10.359Z,1.10
2023-04-05T02:11:37.492Z,1.50
2023-04-05T02:14:04.841Z,1.00
2023-04-05T02:16:35.259Z,1.40
2023-04-05T02:19:02.384Z,1.10
2023-04-05T02:21:31.607Z,1.00
2023-04-05T02:23:59.492Z,1.10
2023-04-05T02:26:26.960Z,0.80
2023-04-05T02:28:54.357Z,0.88
2023-04-05T02:31:21.852Z,1.27
2023-04-05T02:33:49.514Z,1.17
2023-04-05T02:36:16.935Z,1.52
2023-04-05T02:38:45.838Z,1.02
2023-04-05T02:41:13.436Z,1.15
2023-04-05T02:43:40.855Z,0.75
2023-04-05T02:46:08.425Z,0.95
2023-04-05T02:48:40.312Z,1.30
2023-04-05T02:51:16.262Z,0.90
2023-04-05T02:53:44.720Z,0.80
2023-04-05T02:56:14.867Z,1.33
2023-04-05T02:58:49.341Z,1.17
2023-04-05T03:01:22.809Z,1.35
2023-04-05T03:03:50.737Z,1.20
2023-04-05T03:06:18.271Z,1.00
2023-04-05T03:08:51.346Z,1.10
2023-04-05T03:11:25.343Z,1.20
2023-04-05T03:13:57.299Z,0.90
2023-04-05T03:16:42.098Z,1.10
2023-04-05T03:19:22.318Z,1.15
2023-04-05T03:21:53.015Z,0.70
2023-04-05T03:24:29.032Z,0.90
2023-04-05T03:27:03.980Z,0.82
2023-04-05T03:29:35.858Z,0.80
2023-04-05T03:32:13.610Z,0.80
2023-04-05T03:34:47.968Z,0.68
2023-04-05T03:37:17.080Z,0.88
2023-04-05T03:39:49.973Z,1.02
2023-04-05T03:42:19.878Z,0.90
2023-04-05T03:44:50.444Z,0.95
2023-04-05T03:47:18.114Z,0.90
2023-04-05T03:49:46.421Z,0.57
2023-04-05T03:52:13.449Z,0.75
2023-04-05T03:54:45.534Z,0.95
2023-04-05T03:57:15.880Z,1.05
2023-04-05T03:59:46.014Z,0.60
2023-04-05T04:02:14.394Z,0.73
2023-04-05T04:04:41.995Z,0.82
2023-04-05T04:07:09.508Z,0.68
2023-04-05T04:09:37.022Z,0.90
2023-04-05T04:12:12.255Z,1.17
2023-04-05T04:14:48.374Z,1.02
2023-04-05T04:17:47.927Z,0.70
2023-04-05T04:20:37.641Z,1.27
2023-04-05T04:23:24.756Z,0.80
2023-04-05T04:26:30.472Z,0.70
2023-04-05T04:29:15.909Z,0.73
2023-04-05T04:32:06.594Z,0.90
2023-04-05T04:35:00.132Z,1.20
2023-04-05T04:37:59.568Z,0.70
2023-04-05T04:40:43.735Z,1.08
2023-04-05T04:43:42.542Z,1.00
2023-04-05T04:46:42.757Z,1.35
2023-04-05T04:49:31.634Z,1.08
2023-04-05T04:51:59.346Z,1.20
2023-04-05T04:54:27.754Z,1.30
2023-04-05T04:56:54.831Z,1.70
2023-04-05T04:59:22.242Z,1.17
2023-04-05T05:01:49.584Z,1.40
2023-04-05T05:04:16.840Z,1.63
2023-04-05T05:06:45.530Z,1.70
2023-04-05T05:09:12.905Z,1.88
2023-04-05T05:11:48.056Z,1.48
2023-04-05T05:14:15.522Z,1.60
2023-04-05T05:16:42.994Z,1.70
2023-04-05T05:19:10.213Z,2.05
2023-04-05T05:24:10.601Z,2.20
2023-04-05T05:26:37.798Z,1.95
2023-04-05T05:29:04.906Z,2.15
2023-04-05T05:31:36.230Z,1.75
2023-04-05T05:34:03.694Z,2.75
2023-04-05T05:36:31.159Z,2.45
2023-04-05T05:38:58.279Z,2.63
2023-04-05T05:41:25.487Z,3.03
2023-04-05T05:43:53.431Z,2.30
2023-04-05T05:46:21.321Z,1.73
2023-04-05T05:48:48.769Z,3.60
2023-04-05T05:51:16.886Z,2.10
2023-04-05T05:53:44.475Z,2.05
2023-04-05T05:56:12.411Z,1.83
2023-04-05T05:58:40.187Z,2.17
2023-04-05T06:01:12.068Z,2.15
2023-04-05T06:03:40.249Z,2.10
2023-04-05T06:06:10.911Z,2.10
2023-04-05T06:08:38.374Z,2.30
2023-04-05T06:11:05.772Z,2.05
2023-04-05T06:13:33.788Z,2.00
2023-04-05T06:16:01.508Z,1.85
2023-04-05T06:18:28.695Z,2.20
2023-04-05T06:20:59.674Z,2.05
2023-04-05T06:23:27.134Z,3.03
2023-04-05T06:25:54.497Z,2.67
2023-04-05T06:28:21.705Z,2.60
2023-04-05T06:30:48.912Z,2.92
2023-04-05T06:33:16.416Z,2.63
2023-04-05T06:35:43.895Z,2.33
2023-04-05T06:38:11.206Z,2.97
2023-04-05T06:40:39.184Z,2.70
2023-04-05T06:43:06.832Z,2.83
2023-04-05T06:45:33.931Z,3.15
2023-04-05T06:48:01.690Z,2.45
2023-04-05T06:50:29.223Z,2.83
2023-04-05T06:52:57.073Z,2.88
2023-04-05T06:55:24.255Z,3.05
2023-04-05T06:57:51.438Z,2.38
2023-04-05T07:00:19.138Z,2.95
2023-04-05T07:02:46.362Z,2.10
2023-04-05T07:05:13.615Z,2.20
2023-04-05T07:07:42.871Z,2.13
2023-04-05T07:10:10.665Z,2.80
2023-04-05T07:12:39.100Z,2.50
2023-04-05T07:15:07.310Z,2.30
2023-04-05T07:17:34.971Z,2.20
2023-04-05T07:20:02.331Z,2.30
2023-04-05T07:22:29.510Z,2.92
2023-04-05T07:24:57.914Z,2.50
2023-04-05T07:27:25.369Z,2.60
2023-04-05T07:29:53.104Z,2.50
2023-04-05T07:32:20.912Z,2.40
2023-04-05T07:34:48.303Z,3.10
2023-04-05T07:37:15.840Z,2.38
2023-04-05T07:39:43.179Z,2.80
2023-04-05T07:42:10.912Z,2.72
2023-04-05T07:44:38.023Z,2.72
2023-04-05T07:47:05.986Z,1.90
2023-04-05T07:49:33.381Z,2.40
2023-04-05T07:52:01.297Z,1.90
2023-04-05T07:54:30.782Z,2.03
2023-04-05T07:56:58.408Z,2.80
2023-04-05T07:59:26.751Z,2.25
2023-04-05T08:01:57.095Z,1.88
2023-04-05T08:04:29.037Z,1.77
2023-04-05T08:06:56.130Z,2.63
2023-04-05T08:09:23.462Z,2.33
2023-04-05T08:11:50.546Z,1.80
2023-04-05T08:14:17.937Z,2.13
2023-04-05T08:16:45.468Z,1.73
2023-04-05T08:19:14.495Z,2.28
2023-04-05T08:21:43.170Z,2.20
2023-04-05T08:24:10.736Z,2.22
2023-04-05T08:26:38.469Z,2.50
2023-04-05T08:29:05.815Z,1.98
2023-04-05T08:31:33.918Z,2.20
2023-04-05T08:34:01.250Z,1.67
2023-04-05T08:36:28.541Z,2.20
2023-04-05T08:38:56.169Z,2.40
2023-04-05T08:41:23.739Z,2.08
2023-04-05T08:43:58.657Z,1.58
2023-04-05T08:46:26.124Z,2.00
2023-04-05T08:48:53.590Z,1.50
2023-04-05T08:51:21.328Z,1.90
2023-04-05T08:53:48.931Z,1.40
2023-04-05T08:56:22.048Z,1.60
2023-04-05T08:58:57.070Z,1.90
2023-04-05T09:01:24.754Z,2.08
2023-04-05T09:03:52.267Z,1.85
2023-04-05T09:06:20.160Z,2.33
2023-04-05T09:08:47.614Z,1.90
2023-04-05T09:11:15.736Z,1.70
2023-04-05T09:13:42.819Z,1.60
2023-04-05T09:16:09.931Z,1.70
2023-04-05T09:18:37.748Z,1.60
2023-04-05T09:21:08.069Z,1.70
2023-04-05T09:23:37.094Z,1.52
2023-04-05T09:26:24.052Z,2.10
2023-04-05T09:28:55.850Z,1.80
2023-04-05T09:31:31.008Z,1.50
2023-04-05T09:34:01.075Z,1.95
2023-04-05T09:36:28.505Z,2.03
2023-04-05T09:39:09.101Z,2.25
2023-04-05T09:41:36.773Z,2.20
2023-04-05T09:44:04.376Z,2.05
2023-04-05T09:46:34.048Z,1.63
2023-04-05T09:49:01.907Z,2.10
2023-04-05T09:51:36.403Z,3.80
2023-04-05T09:54:09.497Z,1.92
2023-04-05T09:56:38.389Z,2.05
2023-04-05T09:59:10.440Z,2.28
2023-04-05T10:01:51.321Z,2.03
2023-04-05T10:04:22.811Z,2.03
2023-04-05T10:06:50.195Z,2.17
2023-04-05T10:09:19.306Z,2.28
2023-04-05T10:11:46.385Z,1.80
2023-04-05T10:14:14.248Z,3.13
2023-04-05T10:17:03.803Z,2.53
2023-04-05T10:19:55.198Z,2.53
2023-04-05T10:22:49.525Z,2.33
2023-04-05T10:25:53.960Z,2.85
2023-04-05T10:28:35.868Z,3.35
2023-04-05T10:31:37.815Z,2.50
2023-04-05T10:34:10.677Z,3.40
2023-04-05T10:36:57.052Z,3.83
2023-04-05T10:39:55.105Z,2.70
2023-04-05T10:42:27.550Z,3.03
2023-04-05T10:45:02.017Z,2.63
2023-04-05T10:47:31.440Z,2.60
2023-04-05T10:50:00.253Z,2.53
2023-04-05T10:52:27.485Z,3.08
2023-04-05T10:54:56.550Z,3.38
2023-04-05T10:57:23.965Z,2.70
2023-04-05T10:59:51.254Z,2.70
2023-04-05T11:02:18.689Z,2.15
2023-04-05T11:04:46.160Z,2.65
2023-04-05T11:07:15.811Z,2.85
2023-04-05T11:09:55.712Z,2.50
2023-04-05T11:12:47.398Z,2.28
2023-04-05T11:15:30.333Z,3.78
2023-04-05T11:18:11.363Z,2.45
2023-04-05T11:20:53.089Z,3.38
2023-04-05T11:23:21.749Z,2.60
2023-04-05T11:25:59.511Z,2.60
2023-04-05T11:28:39.433Z,2.70
2023-04-05T11:31:16.730Z,3.03
2023-04-05T11:33:56.390Z,3.03
2023-04-05T11:36:37.894Z,2.97
2023-04-05T11:39:23.175Z,1.50
2023-04-05T11:42:01.700Z,1.17
2023-04-05T11:44:49.150Z,1.70
2023-04-05T11:47:22.861Z,1.30
2023-04-05T11:49:51.025Z,1.30
2023-04-05T11:52:20.132Z,1.25
2023-04-05T11:54:48.512Z,2.13
2023-04-05T11:57:23.224Z,1.42
2023-04-05T11:59:54.309Z,1.30
2023-04-05T12:02:21.860Z,1.15
2023-04-05T12:04:57.100Z,1.40
2023-04-05T12:07:27.701Z,1.85
2023-04-05T12:10:15.747Z,2.03
2023-04-05T12:12:44.242Z,1.80
2023-04-05T12:15:14.097Z,1.38
2023-04-05T12:17:46.316Z,3.22
2023-04-05T12:20:14.557Z,2.10
2023-04-05T12:22:43.345Z,2.58
2023-04-05T12:25:11.014Z,2.95
2023-04-05T12:27:38.728Z,2.03
2023-04-05T12:30:11.171Z,2.38
2023-04-05T12:32:42.475Z,2.37
2023-04-05T12:35:17.284Z,3.00
2023-04-05T12:37:45.437Z,2.45
2023-04-05T12:40:12.936Z,2.20
2023-04-05T12:42:40.980Z,3.10
2023-04-05T12:45:12.890Z,2.97
2023-04-05T12:47:56.719Z,2.75
2023-04-05T12:50:28.310Z,2.35
2023-04-05T12:53:00.381Z,2.38
2023-04-05T12:55:31.941Z,1.65
2023-04-05T12:58:00.649Z,2.50
2023-04-05T13:00:29.107Z,2.60
2023-04-05T13:02:57.962Z,3.95
2023-04-05T13:05:29.387Z,4.97
2023-04-05T13:07:56.799Z,5.03
2023-04-05T13:10:24.926Z,5.90
2023-04-05T13:12:52.006Z,8.68
2023-04-05T13:15:19.502Z,8.15
2023-04-05T13:17:49.415Z,9.52
2023-04-05T13:20:17.584Z,9.25
2023-04-05T13:22:45.819Z,8.52
2023-04-05T13:25:13.947Z,11.50
2023-04-05T13:27:40.984Z,10.82
2023-04-05T13:30:09.094Z,13.18
2023-04-05T13:32:36.958Z,21.30
2023-04-05T13:35:05.873Z,22.33
2023-04-05T13:37:33.414Z,26.83
2023-04-05T13:40:01.032Z,28.40
2023-04-05T13:42:28.623Z,16.45
2023-04-05T13:44:55.935Z,21.15
2023-04-05T13:47:23.263Z,23.02
2023-04-05T13:49:51.073Z,25.83
2023-04-05T13:52:18.401Z,30.35
2023-04-05T13:54:45.592Z,35.88
2023-04-05T13:57:14.068Z,53.17
2023-04-05T13:59:41.611Z,43.20
2023-04-05T14:02:08.994Z,36.97
2023-04-05T14:04:36.737Z,22.75
2023-04-05T14:07:03.973Z,38.30
2023-04-05T14:09:32.262Z,27.65
2023-04-05T14:12:01.466Z,34.78
2023-04-05T14:14:29.292Z,25.55
2023-04-05T14:16:56.516Z,30.30
2023-04-05T14:19:23.798Z,17.95
2023-04-05T14:21:51.375Z,27.63
2023-04-05T14:24:18.888Z,68.70
2023-04-05T14:26:50.095Z,63.03
2023-04-05T14:29:17.454Z,64.03
2023-04-05T14:31:45.559Z,53.83
2023-04-05T14:34:13.092Z,45.83
2023-04-05T14:36:40.672Z,45.55
2023-04-05T14:39:07.997Z,41.85
2023-04-05T14:41:35.354Z,35.72
2023-04-05T14:44:03.130Z,40.25
2023-04-05T14:46:30.881Z,37.72
2023-04-05T14:48:58.233Z,39.67
2023-04-05T14:51:26.550Z,43.42
2023-04-05T14:53:54.272Z,38.10
2023-04-05T14:56:21.844Z,34.05
2023-04-05T14:58:49.234Z,34.85
2023-04-05T15:01:16.827Z,29.45
2023-04-05T15:03:44.231Z,34.42
2023-04-05T15:06:11.883Z,28.55
2023-04-05T15:08:39.005Z,22.27
2023-04-05T15:11:06.950Z,24.38
2023-04-05T15:13:34.160Z,28.30
2023-04-05T15:16:01.360Z,28.58
2023-04-05T15:18:28.526Z,26.80
2023-04-05T15:20:55.778Z,29.45
2023-04-05T15:23:22.960Z,39.90
2023-04-05T15:25:50.593Z,32.53
2023-04-05T15:28:18.029Z,32.90
2023-04-05T15:30:45.630Z,34.42
2023-04-05T15:33:13.445Z,35.47
2023-04-05T15:35:41.140Z,34.65
2023-04-05T15:38:08.582Z,31.70
2023-04-05T15:40:36.079Z,20.92
2023-04-05T15:43:03.428Z,18.35
2023-04-05T15:45:31.498Z,39.92
2023-04-05T15:47:58.828Z,18.52
2023-04-05T15:50:26.804Z,45.85
2023-04-05T15:52:53.959Z,37.22
2023-04-05T15:55:21.541Z,34.38
2023-04-05T15:57:53.398Z,52.78
2023-04-05T16:00:22.444Z,66.00
2023-04-05T16:02:52.797Z,65.78
2023-04-05T16:05:21.577Z,67.38
2023-04-05T16:07:49.205Z,71.25
2023-04-05T16:10:16.773Z,58.33
2023-04-05T16:12:44.093Z,52.78
2023-04-05T16:15:11.748Z,54.53
2023-04-05T16:17:39.219Z,55.35
2023-04-05T16:20:07.199Z,58.58
2023-04-05T16:22:34.625Z,48.08
2023-04-05T16:25:01.853Z,49.15
2023-04-05T16:27:29.028Z,43.35
2023-04-05T16:29:56.854Z,45.47
2023-04-05T16:32:24.453Z,43.05
2023-04-05T16:34:51.518Z,39.15
2023-04-05T16:37:18.945Z,38.50
2023-04-05T16:39:46.157Z,38.78
2023-04-05T16:42:13.354Z,39.72
2023-04-05T16:44:40.823Z,38.80
2023-04-05T16:47:07.981Z,38.28
2023-04-05T16:49:35.474Z,42.13
2023-04-05T16:52:03.148Z,41.95
2023-04-05T16:54:31.208Z,42.17
2023-04-05T16:56:58.695Z,39.85
2023-04-05T16:59:26.098Z,43.30
2023-04-05T17:01:53.474Z,39.85
2023-04-05T17:04:21.287Z,39.42
2023-04-05T17:06:49.228Z,40.67
2023-04-05T17:09:16.608Z,40.58
2023-04-05T17:11:43.973Z,41.00
2023-04-05T17:14:11.435Z,39.10
2023-04-05T17:16:39.471Z,37.92
2023-04-05T17:19:07.078Z,31.42
2023-04-05T17:21:35.590Z,30.55
2023-04-05T17:24:02.971Z,22.58
2023-04-05T17:26:30.071Z,25.38
2023-04-05T17:28:57.273Z,28.27
2023-04-05T17:31:25.261Z,28.08
2023-04-05T17:33:52.641Z,25.60
2023-04-05T17:36:20.171Z,26.30
2023-04-05T17:38:47.652Z,28.33
2023-04-05T17:41:15.240Z,28.75
2023-04-05T17:43:42.591Z,28.65
2023-04-05T17:46:13.529Z,28.90
2023-04-05T17:48:41.593Z,30.33
2023-04-05T17:51:08.934Z,30.48
2023-04-05T17:53:36.312Z,32.92
2023-04-05T17:56:04.227Z,56.42
2023-04-05T17:58:32.568Z,69.28
2023-04-05T18:01:00.024Z,73.18
2023-04-05T18:03:27.908Z,112.43
2023-04-05T18:05:55.544Z,107.22
2023-04-05T18:08:23.586Z,103.13
2023-04-05T18:10:56.436Z,77.35
2023-04-05T18:13:24.468Z,83.82
2023-04-05T18:15:55.282Z,83.47
2023-04-05T18:18:22.683Z,70.45
2023-04-05T18:20:53.645Z,73.28
2023-04-05T18:23:22.336Z,67.75
2023-04-05T18:25:49.479Z,64.78
2023-04-05T18:28:22.755Z,71.15
2023-04-05T18:30:50.825Z,82.38
2023-04-05T18:33:18.498Z,86.40
2023-04-05T18:35:50.114Z,92.22
2023-04-05T18:38:18.027Z,93.88
2023-04-05T18:40:46.029Z,97.72
2023-04-05T18:43:14.046Z,109.10
2023-04-05T18:45:41.608Z,115.53
2023-04-05T18:48:08.755Z,107.60
2023-04-05T18:50:36.484Z,87.95
2023-04-05T18:53:06.497Z,115.78
2023-04-05T18:55:33.831Z,94.00
2023-04-05T18:58:02.370Z,118.78
2023-04-05T19:00:29.687Z,114.22
2023-04-05T19:02:57.182Z,104.22
2023-04-05T19:05:24.946Z,87.07
2023-04-05T19:07:52.357Z,88.68
2023-04-05T19:10:19.916Z,92.10
2023-04-05T19:12:47.116Z,98.07
2023-04-05T19:15:14.890Z,98.63
2023-04-05T19:17:42.315Z,98.75
2023-04-05T19:20:10.004Z,102.95
2023-04-05T19:22:37.677Z,97.15
2023-04-05T19:25:05.166Z,99.45
2023-04-05T19:27:34.292Z,97.65
2023-04-05T19:30:03.490Z,103.85
2023-04-05T19:32:30.969Z,99.55
2023-04-05T19:34:59.348Z,101.05
2023-04-05T19:37:26.725Z,104.68
2023-04-05T19:39:54.498Z,138.43
2023-04-05T19:42:21.937Z,125.80
2023-04-05T19:44:57.647Z,117.00
2023-04-05T19:47:25.730Z,107.60
2023-04-05T19:49:55.696Z,119.13
2023-04-05T19:52:36.376Z,135.07
2023-04-05T19:55:26.844Z,134.40
2023-04-05T19:57:54.513Z,140.85
2023-04-05T20:00:34.090Z,137.63
2023-04-05T20:03:01.559Z,128.82
2023-04-05T20:05:47.071Z,140.60
2023-04-05T20:08:15.275Z,132.40
2023-04-05T20:10:47.593Z,133.55
2023-04-05T20:13:21.005Z,132.90
2023-04-05T20:15:52.022Z,130.82
2023-04-05T20:18:26.328Z,118.97
2023-04-05T20:20:54.068Z,117.03
2023-04-05T20:23:22.174Z,111.28
2023-04-05T20:25:50.061Z,98.35
2023-04-05T20:28:40.195Z,95.45
2023-04-05T20:31:18.047Z,78.68
2023-04-05T20:33:45.742Z,74.57
2023-04-05T20:36:13.696Z,94.53
2023-04-05T20:38:42.496Z,86.38
2023-04-05T20:41:11.538Z,98.20
2023-04-05T20:43:38.989Z,65.18
2023-04-05T20:46:06.621Z,64.97
2023-04-05T20:48:34.639Z,58.85
2023-04-05T20:51:03.153Z,58.47
2023-04-05T20:53:33.180Z,55.45
2023-04-05T20:56:00.433Z,66.28
2023-04-05T20:58:28.160Z,63.40
2023-04-05T21:00:55.759Z,81.60
2023-04-05T21:03:23.000Z,84.20
2023-04-05T21:05:50.355Z,87.53
2023-04-05T21:08:17.984Z,87.68
2023-04-05T21:10:45.605Z,93.38
2023-04-05T21:13:13.413Z,90.90
2023-04-05T21:15:41.194Z,92.00
2023-04-05T21:18:09.984Z,101.53
2023-04-05T21:20:37.254Z,91.90
2023-04-05T21:23:04.659Z,92.57
2023-04-05T21:25:32.082Z,87.63
2023-04-05T21:28:02.452Z,89.57
2023-04-05T21:30:29.969Z,91.32
2023-04-05T21:32:57.422Z,90.75
2023-04-05T21:35:25.209Z,85.43
2023-04-05T21:37:52.863Z,88.78
2023-04-05T21:40:20.461Z,91.43
2023-04-05T21:42:47.945Z,89.63
2023-04-05T21:45:15.420Z,88.30
2023-04-05T21:47:42.802Z,86.82
2023-04-05T21:50:10.757Z,79.82
2023-04-05T21:52:38.509Z,84.15
2023-04-05T21:55:06.308Z,81.57
2023-04-05T21:57:33.591Z,81.72
2023-04-05T22:00:01.312Z,83.93
2023-04-05T22:02:28.875Z,83.45
2023-04-05T22:04:56.269Z,83.68
2023-04-05T22:07:23.440Z,89.85
2023-04-05T22:09:51.413Z,88.55
2023-04-05T22:12:21.142Z,83.93
2023-04-05T22:14:48.458Z,81.22
2023-04-05T22:17:15.864Z,78.25
2023-04-05T22:19:43.767Z,77.05
2023-04-05T22:22:12.715Z,67.05
2023-04-05T22:24:40.076Z,69.05
2023-04-05T22:27:07.486Z,63.25
2023-04-05T22:29:34.738Z,58.58
2023-04-05T22:32:02.330Z,52.13
2023-04-05T22:34:29.777Z,54.33
2023-04-05T22:36:56.829Z,60.53
2023-04-05T22:39:24.267Z,61.08
2023-04-05T22:41:51.626Z,60.78
2023-04-05T22:44:19.851Z,57.90
2023-04-05T22:46:47.480Z,56.55
2023-04-05T22:49:14.624Z,55.95
2023-04-05T22:51:42.033Z,56.53
2023-04-05T22:54:09.530Z,50.85
2023-04-05T22:56:36.903Z,41.28
2023-04-05T22:59:04.169Z,41.03
2023-04-05T23:01:31.428Z,38.35
2023-04-05T23:03:59.029Z,32.75
2023-04-05T23:06:26.201Z,30.67
2023-04-05T23:08:53.599Z,29.10
2023-04-05T23:11:21.299Z,28.42
2023-04-05T23:13:49.500Z,27.58
2023-04-05T23:16:17.160Z,23.90
2023-04-05T23:18:44.368Z,22.40
2023-04-05T23:21:12.094Z,21.50
2023-04-05T23:23:39.599Z,20.73
2023-04-05T23:26:07.134Z,19.70
2023-04-05T23:28:34.595Z,21.52
2023-04-05T23:31:01.746Z,21.05
2023-04-05T23:33:29.210Z,20.73
2023-04-05T23:35:56.659Z,20.25
2023-04-05T23:38:24.172Z,21.05
2023-04-05T23:40:52.056Z,21.77
2023-04-05T23:43:19.263Z,22.50
2023-04-05T23:45:46.797Z,22.58
2023-04-05T23:48:13.942Z,22.90
2023-04-05T23:50:41.429Z,22.45
2023-04-05T23:53:08.597Z,23.38
2023-04-05T23:55:40.041Z,20.65
2023-04-05T23:58:08.360Z,22.38
